sensor_id;sensor_type;location;lat;lon;timestamp;temperature;humidity
16827;DHT22;8530;49.540;8.576;2024-02-21T00:00:24;8.80;93.90
16827;DHT22;8530;49.540;8.576;2024-02-21T00:02:50;8.80;94.00
16827;DHT22;8530;49.540;8.576;2024-02-21T00:05:17;8.80;94.10
16827;DHT22;8530;49.540;8.576;2024-02-21T00:07:44;8.80;94.20
16827;DHT22;8530;49.540;8.576;2024-02-21T00:10:12;8.80;94.20
16827;DHT22;8530;49.540;8.576;2024-02-21T00:12:38;8.80;94.30
16827;DHT22;8530;49.540;8.576;2024-02-21T00:15:06;8.80;94.40
16827;DHT22;8530;49.540;8.576;2024-02-21T00:17:33;8.80;94.40
16827;DHT22;8530;49.540;8.576;2024-02-21T00:20:00;8.80;94.50
16827;DHT22;8530;49.540;8.576;2024-02-21T00:22:26;8.80;94.60
16827;DHT22;8530;49.540;8.576;2024-02-21T00:24:54;8.80;94.60
16827;DHT22;8530;49.540;8.576;2024-02-21T00:27:22;8.80;94.70
16827;DHT22;8530;49.540;8.576;2024-02-21T00:29:49;8.80;94.80
16827;DHT22;8530;49.540;8.576;2024-02-21T00:32:16;8.80;94.90
16827;DHT22;8530;49.540;8.576;2024-02-21T00:34:43;8.80;94.90
16827;DHT22;8530;49.540;8.576;2024-02-21T00:37:09;8.80;95.00
16827;DHT22;8530;49.540;8.576;2024-02-21T00:39:36;8.70;95.00
16827;DHT22;8530;49.540;8.576;2024-02-21T00:42:04;8.70;95.10
16827;DHT22;8530;49.540;8.576;2024-02-21T00:44:32;8.70;95.10
16827;DHT22;8530;49.540;8.576;2024-02-21T00:46:58;8.60;95.20
16827;DHT22;8530;49.540;8.576;2024-02-21T00:49:25;8.60;95.20
16827;DHT22;8530;49.540;8.576;2024-02-21T00:51:52;8.60;95.30
16827;DHT22;8530;49.540;8.576;2024-02-21T00:54:18;8.50;95.40
16827;DHT22;8530;49.540;8.576;2024-02-21T00:56:45;8.50;95.50
16827;DHT22;8530;49.540;8.576;2024-02-21T00:59:12;8.50;95.60
16827;DHT22;8530;49.540;8.576;2024-02-21T01:01:40;8.40;95.70
16827;DHT22;8530;49.540;8.576;2024-02-21T01:04:08;8.40;95.80
16827;DHT22;8530;49.540;8.576;2024-02-21T01:06:35;8.40;95.80
16827;DHT22;8530;49.540;8.576;2024-02-21T01:09:02;8.40;95.90
16827;DHT22;8530;49.540;8.576;2024-02-21T01:11:29;8.40;96.00
16827;DHT22;8530;49.540;8.576;2024-02-21T01:13:56;8.40;96.10
16827;DHT22;8530;49.540;8.576;2024-02-21T01:16:23;8.40;96.10
16827;DHT22;8530;49.540;8.576;2024-02-21T01:18:51;8.40;96.20
16827;DHT22;8530;49.540;8.576;2024-02-21T01:21:17;8.40;96.30
16827;DHT22;8530;49.540;8.576;2024-02-21T01:23:44;8.30;96.30
16827;DHT22;8530;49.540;8.576;2024-02-21T01:26:11;8.30;96.40
16827;DHT22;8530;49.540;8.576;2024-02-21T01:28:39;8.30;96.40
16827;DHT22;8530;49.540;8.576;2024-02-21T01:31:06;8.30;96.50
16827;DHT22;8530;49.540;8.576;2024-02-21T01:33:33;8.30;96.60
16827;DHT22;8530;49.540;8.576;2024-02-21T01:36:02;8.30;96.60
16827;DHT22;8530;49.540;8.576;2024-02-21T01:38:29;8.30;96.70
16827;DHT22;8530;49.540;8.576;2024-02-21T01:40:57;8.30;96.70
16827;DHT22;8530;49.540;8.576;2024-02-21T01:43:24;8.30;96.80
16827;DHT22;8530;49.540;8.576;2024-02-21T01:45:52;8.30;96.90
16827;DHT22;8530;49.540;8.576;2024-02-21T01:48:20;8.30;96.90
16827;DHT22;8530;49.540;8.576;2024-02-21T01:50:49;8.30;97.00
16827;DHT22;8530;49.540;8.576;2024-02-21T01:53:23;8.30;97.10
16827;DHT22;8530;49.540;8.576;2024-02-21T01:55:51;8.30;97.20
16827;DHT22;8530;49.540;8.576;2024-02-21T01:58:19;8.30;97.20
16827;DHT22;8530;49.540;8.576;2024-02-21T02:00:47;8.30;97.20
16827;DHT22;8530;49.540;8.576;2024-02-21T02:03:14;8.30;97.30
16827;DHT22;8530;49.540;8.576;2024-02-21T02:05:43;8.30;97.30
16827;DHT22;8530;49.540;8.576;2024-02-21T02:08:10;8.30;97.40
16827;DHT22;8530;49.540;8.576;2024-02-21T02:10:39;8.30;97.40
16827;DHT22;8530;49.540;8.576;2024-02-21T02:13:06;8.30;97.50
16827;DHT22;8530;49.540;8.576;2024-02-21T02:15:40;8.30;97.50
16827;DHT22;8530;49.540;8.576;2024-02-21T02:18:07;8.30;97.60
16827;DHT22;8530;49.540;8.576;2024-02-21T02:20:33;8.30;97.60
16827;DHT22;8530;49.540;8.576;2024-02-21T02:23:05;8.30;97.60
16827;DHT22;8530;49.540;8.576;2024-02-21T02:25:34;8.20;97.70
16827;DHT22;8530;49.540;8.576;2024-02-21T02:28:01;8.20;97.70
16827;DHT22;8530;49.540;8.576;2024-02-21T02:30:28;8.20;97.80
16827;DHT22;8530;49.540;8.576;2024-02-21T02:32:55;8.10;97.80
16827;DHT22;8530;49.540;8.576;2024-02-21T02:35:21;8.10;97.90
16827;DHT22;8530;49.540;8.576;2024-02-21T02:37:48;8.10;98.00
16827;DHT22;8530;49.540;8.576;2024-02-21T02:40:16;8.00;98.00
16827;DHT22;8530;49.540;8.576;2024-02-21T02:42:44;8.00;98.10
16827;DHT22;8530;49.540;8.576;2024-02-21T02:45:11;8.00;98.10
16827;DHT22;8530;49.540;8.576;2024-02-21T02:47:39;8.00;98.20
16827;DHT22;8530;49.540;8.576;2024-02-21T02:50:07;8.00;98.30
16827;DHT22;8530;49.540;8.576;2024-02-21T02:52:34;8.00;98.30
16827;DHT22;8530;49.540;8.576;2024-02-21T02:55:00;8.00;98.40
16827;DHT22;8530;49.540;8.576;2024-02-21T02:57:27;8.00;98.50
16827;DHT22;8530;49.540;8.576;2024-02-21T02:59:55;8.00;98.50
16827;DHT22;8530;49.540;8.576;2024-02-21T03:02:21;8.00;98.50
16827;DHT22;8530;49.540;8.576;2024-02-21T03:04:47;8.00;98.60
16827;DHT22;8530;49.540;8.576;2024-02-21T03:07:14;8.00;98.70
16827;DHT22;8530;49.540;8.576;2024-02-21T03:09:41;7.90;98.70
16827;DHT22;8530;49.540;8.576;2024-02-21T03:12:09;7.90;98.70
16827;DHT22;8530;49.540;8.576;2024-02-21T03:14:36;7.90;98.80
16827;DHT22;8530;49.540;8.576;2024-02-21T03:17:04;7.80;98.80
16827;DHT22;8530;49.540;8.576;2024-02-21T03:19:31;7.80;98.90
16827;DHT22;8530;49.540;8.576;2024-02-21T03:21:58;7.80;99.00
16827;DHT22;8530;49.540;8.576;2024-02-21T03:24:25;7.70;99.00
16827;DHT22;8530;49.540;8.576;2024-02-21T03:26:51;7.70;99.00
16827;DHT22;8530;49.540;8.576;2024-02-21T03:29:18;7.70;99.10
16827;DHT22;8530;49.540;8.576;2024-02-21T03:31:45;7.70;99.20
16827;DHT22;8530;49.540;8.576;2024-02-21T03:34:13;7.60;99.20
16827;DHT22;8530;49.540;8.576;2024-02-21T03:36:40;7.60;99.30
16827;DHT22;8530;49.540;8.576;2024-02-21T03:39:06;7.60;99.30
16827;DHT22;8530;49.540;8.576;2024-02-21T03:41:34;7.60;99.40
16827;DHT22;8530;49.540;8.576;2024-02-21T03:44:01;7.50;99.40
16827;DHT22;8530;49.540;8.576;2024-02-21T03:46:28;7.50;99.50
16827;DHT22;8530;49.540;8.576;2024-02-21T03:48:55;7.50;99.50
16827;DHT22;8530;49.540;8.576;2024-02-21T03:51:23;7.60;99.60
16827;DHT22;8530;49.540;8.576;2024-02-21T03:53:49;7.60;99.70
16827;DHT22;8530;49.540;8.576;2024-02-21T03:56:16;7.60;99.70
16827;DHT22;8530;49.540;8.576;2024-02-21T03:58:43;7.70;99.70
16827;DHT22;8530;49.540;8.576;2024-02-21T04:01:10;7.70;99.80
16827;DHT22;8530;49.540;8.576;2024-02-21T04:03:38;7.80;99.90
16827;DHT22;8530;49.540;8.576;2024-02-21T04:06:04;7.80;99.90
16827;DHT22;8530;49.540;8.576;2024-02-21T04:08:32;7.90;99.90
16827;DHT22;8530;49.540;8.576;2024-02-21T04:10:59;7.90;99.90
16827;DHT22;8530;49.540;8.576;2024-02-21T04:13:26;8.00;99.90
16827;DHT22;8530;49.540;8.576;2024-02-21T04:15:53;8.00;99.90
16827;DHT22;8530;49.540;8.576;2024-02-21T04:18:19;8.10;99.90
16827;DHT22;8530;49.540;8.576;2024-02-21T04:20:47;8.10;99.90
16827;DHT22;8530;49.540;8.576;2024-02-21T04:23:14;8.10;99.90
16827;DHT22;8530;49.540;8.576;2024-02-21T04:25:42;8.10;99.90
16827;DHT22;8530;49.540;8.576;2024-02-21T04:28:09;8.20;99.90
16827;DHT22;8530;49.540;8.576;2024-02-21T04:30:35;8.20;99.90
16827;DHT22;8530;49.540;8.576;2024-02-21T04:33:02;8.20;99.90
16827;DHT22;8530;49.540;8.576;2024-02-21T04:35:29;8.20;99.90
16827;DHT22;8530;49.540;8.576;2024-02-21T04:37:56;8.20;99.90
16827;DHT22;8530;49.540;8.576;2024-02-21T04:40:22;8.20;99.90
16827;DHT22;8530;49.540;8.576;2024-02-21T04:42:50;8.20;99.90
16827;DHT22;8530;49.540;8.576;2024-02-21T04:45:17;8.10;99.90
16827;DHT22;8530;49.540;8.576;2024-02-21T04:47:44;8.10;99.90
16827;DHT22;8530;49.540;8.576;2024-02-21T04:50:11;8.10;99.90
16827;DHT22;8530;49.540;8.576;2024-02-21T04:52:38;8.00;99.90
16827;DHT22;8530;49.540;8.576;2024-02-21T04:55:05;8.00;99.90
16827;DHT22;8530;49.540;8.576;2024-02-21T04:57:32;8.10;99.90
16827;DHT22;8530;49.540;8.576;2024-02-21T05:00:00;8.10;99.90
16827;DHT22;8530;49.540;8.576;2024-02-21T05:02:29;8.00;99.90
16827;DHT22;8530;49.540;8.576;2024-02-21T05:04:55;8.00;99.90
16827;DHT22;8530;49.540;8.576;2024-02-21T05:07:22;8.00;99.90
16827;DHT22;8530;49.540;8.576;2024-02-21T05:09:49;8.00;99.90
16827;DHT22;8530;49.540;8.576;2024-02-21T05:12:15;7.90;99.90
16827;DHT22;8530;49.540;8.576;2024-02-21T05:14:42;7.90;99.90
16827;DHT22;8530;49.540;8.576;2024-02-21T05:17:10;7.90;99.90
16827;DHT22;8530;49.540;8.576;2024-02-21T05:19:37;7.90;99.90
16827;DHT22;8530;49.540;8.576;2024-02-21T05:22:04;7.90;99.90
16827;DHT22;8530;49.540;8.576;2024-02-21T05:24:30;7.90;99.90
16827;DHT22;8530;49.540;8.576;2024-02-21T05:26:57;7.90;99.90
16827;DHT22;8530;49.540;8.576;2024-02-21T05:29:24;7.90;99.90
16827;DHT22;8530;49.540;8.576;2024-02-21T05:31:57;7.90;99.90
16827;DHT22;8530;49.540;8.576;2024-02-21T05:34:25;7.90;99.90
16827;DHT22;8530;49.540;8.576;2024-02-21T05:36:53;7.90;99.90
16827;DHT22;8530;49.540;8.576;2024-02-21T05:39:20;7.90;99.90
16827;DHT22;8530;49.540;8.576;2024-02-21T05:41:48;7.90;99.90
16827;DHT22;8530;49.540;8.576;2024-02-21T05:44:15;7.80;99.90
16827;DHT22;8530;49.540;8.576;2024-02-21T05:46:42;7.80;99.90
16827;DHT22;8530;49.540;8.576;2024-02-21T05:49:08;7.80;99.90
16827;DHT22;8530;49.540;8.576;2024-02-21T05:51:36;7.80;99.90
16827;DHT22;8530;49.540;8.576;2024-02-21T05:54:03;7.80;99.90
16827;DHT22;8530;49.540;8.576;2024-02-21T05:56:30;7.80;99.90
16827;DHT22;8530;49.540;8.576;2024-02-21T05:58:57;7.80;99.90
16827;DHT22;8530;49.540;8.576;2024-02-21T06:01:23;7.70;99.90
16827;DHT22;8530;49.540;8.576;2024-02-21T06:03:50;7.60;99.90
16827;DHT22;8530;49.540;8.576;2024-02-21T06:06:17;7.50;99.90
16827;DHT22;8530;49.540;8.576;2024-02-21T06:08:45;7.40;99.90
16827;DHT22;8530;49.540;8.576;2024-02-21T06:11:11;7.30;99.90
16827;DHT22;8530;49.540;8.576;2024-02-21T06:13:40;7.20;99.90
16827;DHT22;8530;49.540;8.576;2024-02-21T06:16:07;7.20;99.90
16827;DHT22;8530;49.540;8.576;2024-02-21T06:18:35;7.10;99.90
16827;DHT22;8530;49.540;8.576;2024-02-21T06:21:03;7.00;99.90
16827;DHT22;8530;49.540;8.576;2024-02-21T06:23:30;7.00;99.90
16827;DHT22;8530;49.540;8.576;2024-02-21T06:25:58;7.00;99.90
16827;DHT22;8530;49.540;8.576;2024-02-21T06:28:25;7.00;99.90
16827;DHT22;8530;49.540;8.576;2024-02-21T06:30:52;7.00;99.90
16827;DHT22;8530;49.540;8.576;2024-02-21T06:33:18;6.90;99.90
16827;DHT22;8530;49.540;8.576;2024-02-21T06:35:48;6.90;99.90
16827;DHT22;8530;49.540;8.576;2024-02-21T06:38:17;6.90;99.90
16827;DHT22;8530;49.540;8.576;2024-02-21T06:40:44;6.90;99.90
16827;DHT22;8530;49.540;8.576;2024-02-21T06:43:17;6.90;99.90
16827;DHT22;8530;49.540;8.576;2024-02-21T06:45:43;6.90;99.90
16827;DHT22;8530;49.540;8.576;2024-02-21T06:48:12;7.00;99.90
16827;DHT22;8530;49.540;8.576;2024-02-21T06:50:39;7.00;99.90
16827;DHT22;8530;49.540;8.576;2024-02-21T06:53:06;7.10;99.90
16827;DHT22;8530;49.540;8.576;2024-02-21T06:55:33;7.10;99.90
16827;DHT22;8530;49.540;8.576;2024-02-21T06:58:00;7.20;99.90
16827;DHT22;8530;49.540;8.576;2024-02-21T07:00:28;7.30;99.90
16827;DHT22;8530;49.540;8.576;2024-02-21T07:02:55;7.40;99.90
16827;DHT22;8530;49.540;8.576;2024-02-21T07:05:22;7.50;99.90
16827;DHT22;8530;49.540;8.576;2024-02-21T07:07:48;7.60;99.90
16827;DHT22;8530;49.540;8.576;2024-02-21T07:10:15;7.60;99.90
16827;DHT22;8530;49.540;8.576;2024-02-21T07:12:42;7.70;99.90
16827;DHT22;8530;49.540;8.576;2024-02-21T07:15:09;7.80;99.90
16827;DHT22;8530;49.540;8.576;2024-02-21T07:17:37;8.00;99.90
16827;DHT22;8530;49.540;8.576;2024-02-21T07:20:04;8.10;99.90
16827;DHT22;8530;49.540;8.576;2024-02-21T07:22:31;8.20;99.90
16827;DHT22;8530;49.540;8.576;2024-02-21T07:24:58;8.40;99.90
16827;DHT22;8530;49.540;8.576;2024-02-21T07:27:24;8.40;99.90
16827;DHT22;8530;49.540;8.576;2024-02-21T07:29:53;8.50;99.90
16827;DHT22;8530;49.540;8.576;2024-02-21T07:32:20;8.60;99.90
16827;DHT22;8530;49.540;8.576;2024-02-21T07:34:48;8.60;99.90
16827;DHT22;8530;49.540;8.576;2024-02-21T07:37:15;8.70;99.90
16827;DHT22;8530;49.540;8.576;2024-02-21T07:39:41;8.80;99.90
16827;DHT22;8530;49.540;8.576;2024-02-21T07:42:08;8.80;99.90
16827;DHT22;8530;49.540;8.576;2024-02-21T07:44:35;9.00;99.90
16827;DHT22;8530;49.540;8.576;2024-02-21T07:47:01;9.10;99.90
16827;DHT22;8530;49.540;8.576;2024-02-21T07:49:28;9.30;99.90
16827;DHT22;8530;49.540;8.576;2024-02-21T07:51:56;9.50;99.90
16827;DHT22;8530;49.540;8.576;2024-02-21T07:54:23;9.60;99.80
16827;DHT22;8530;49.540;8.576;2024-02-21T07:56:50;9.80;99.70
16827;DHT22;8530;49.540;8.576;2024-02-21T07:59:17;9.90;99.60
16827;DHT22;8530;49.540;8.576;2024-02-21T08:01:43;10.10;99.10
16827;DHT22;8530;49.540;8.576;2024-02-21T08:04:11;10.30;99.00
16827;DHT22;8530;49.540;8.576;2024-02-21T08:06:37;10.40;98.90
16827;DHT22;8530;49.540;8.576;2024-02-21T08:09:05;10.50;98.70
16827;DHT22;8530;49.540;8.576;2024-02-21T08:11:32;10.60;98.50
16827;DHT22;8530;49.540;8.576;2024-02-21T08:13:59;10.70;98.30
16827;DHT22;8530;49.540;8.576;2024-02-21T08:16:26;10.70;98.10
16827;DHT22;8530;49.540;8.576;2024-02-21T08:18:53;10.70;97.80
16827;DHT22;8530;49.540;8.576;2024-02-21T08:21:20;10.70;97.80
16827;DHT22;8530;49.540;8.576;2024-02-21T08:23:46;10.80;97.70
16827;DHT22;8530;49.540;8.576;2024-02-21T08:26:18;10.80;97.50
16827;DHT22;8530;49.540;8.576;2024-02-21T08:28:45;10.90;97.40
16827;DHT22;8530;49.540;8.576;2024-02-21T08:31:18;11.00;97.30
16827;DHT22;8530;49.540;8.576;2024-02-21T08:33:45;10.90;97.00
16827;DHT22;8530;49.540;8.576;2024-02-21T08:36:17;10.90;96.70
16827;DHT22;8530;49.540;8.576;2024-02-21T08:38:44;10.90;96.70
16827;DHT22;8530;49.540;8.576;2024-02-21T08:41:11;10.80;96.40
16827;DHT22;8530;49.540;8.576;2024-02-21T08:43:39;10.80;96.30
16827;DHT22;8530;49.540;8.576;2024-02-21T08:46:06;10.90;96.30
16827;DHT22;8530;49.540;8.576;2024-02-21T08:48:33;10.90;96.10
16827;DHT22;8530;49.540;8.576;2024-02-21T08:51:00;10.90;96.00
16827;DHT22;8530;49.540;8.576;2024-02-21T08:53:26;11.00;96.00
16827;DHT22;8530;49.540;8.576;2024-02-21T08:55:54;11.10;95.90
16827;DHT22;8530;49.540;8.576;2024-02-21T08:58:20;11.20;95.90
16827;DHT22;8530;49.540;8.576;2024-02-21T09:00:50;11.30;95.90
16827;DHT22;8530;49.540;8.576;2024-02-21T09:03:17;11.60;96.00
16827;DHT22;8530;49.540;8.576;2024-02-21T09:05:45;11.90;96.20
16827;DHT22;8530;49.540;8.576;2024-02-21T09:08:12;12.20;96.30
16827;DHT22;8530;49.540;8.576;2024-02-21T09:10:39;12.40;96.00
16827;DHT22;8530;49.540;8.576;2024-02-21T09:13:06;12.50;95.70
16827;DHT22;8530;49.540;8.576;2024-02-21T09:15:34;12.80;95.50
16827;DHT22;8530;49.540;8.576;2024-02-21T09:18:02;12.90;94.90
16827;DHT22;8530;49.540;8.576;2024-02-21T09:20:29;12.90;94.40
16827;DHT22;8530;49.540;8.576;2024-02-21T09:22:56;12.90;94.00
16827;DHT22;8530;49.540;8.576;2024-02-21T09:25:23;13.00;93.80
16827;DHT22;8530;49.540;8.576;2024-02-21T09:27:50;13.10;93.40
16827;DHT22;8530;49.540;8.576;2024-02-21T09:30:17;13.10;93.20
16827;DHT22;8530;49.540;8.576;2024-02-21T09:32:45;13.20;93.00
16827;DHT22;8530;49.540;8.576;2024-02-21T09:35:13;13.20;92.70
16827;DHT22;8530;49.540;8.576;2024-02-21T09:37:40;13.20;92.30
16827;DHT22;8530;49.540;8.576;2024-02-21T09:40:08;13.10;91.80
16827;DHT22;8530;49.540;8.576;2024-02-21T09:42:37;13.20;91.80
16827;DHT22;8530;49.540;8.576;2024-02-21T09:45:08;13.20;91.60
16827;DHT22;8530;49.540;8.576;2024-02-21T09:47:43;13.20;91.20
16827;DHT22;8530;49.540;8.576;2024-02-21T09:50:17;13.30;91.00
16827;DHT22;8530;49.540;8.576;2024-02-21T09:52:44;13.30;90.90
16827;DHT22;8530;49.540;8.576;2024-02-21T09:55:11;13.40;90.50
16827;DHT22;8530;49.540;8.576;2024-02-21T09:57:40;13.40;90.20
16827;DHT22;8530;49.540;8.576;2024-02-21T10:00:07;13.40;90.20
16827;DHT22;8530;49.540;8.576;2024-02-21T10:02:34;13.30;88.90
16827;DHT22;8530;49.540;8.576;2024-02-21T10:05:02;13.20;89.00
16827;DHT22;8530;49.540;8.576;2024-02-21T10:07:31;13.30;88.50
16827;DHT22;8530;49.540;8.576;2024-02-21T10:10:02;13.30;88.40
16827;DHT22;8530;49.540;8.576;2024-02-21T10:12:29;13.40;88.10
16827;DHT22;8530;49.540;8.576;2024-02-21T10:15:03;13.50;87.90
16827;DHT22;8530;49.540;8.576;2024-02-21T10:17:30;13.60;87.50
16827;DHT22;8530;49.540;8.576;2024-02-21T10:20:07;13.60;87.10
16827;DHT22;8530;49.540;8.576;2024-02-21T10:22:35;13.70;86.70
16827;DHT22;8530;49.540;8.576;2024-02-21T10:25:08;13.90;86.80
16827;DHT22;8530;49.540;8.576;2024-02-21T10:27:34;14.00;86.40
16827;DHT22;8530;49.540;8.576;2024-02-21T10:30:03;14.10;86.10
16827;DHT22;8530;49.540;8.576;2024-02-21T10:32:30;14.30;85.90
16827;DHT22;8530;49.540;8.576;2024-02-21T10:35:01;14.40;85.00
16827;DHT22;8530;49.540;8.576;2024-02-21T10:37:30;14.40;84.30
16827;DHT22;8530;49.540;8.576;2024-02-21T10:39:58;14.40;84.00
16827;DHT22;8530;49.540;8.576;2024-02-21T10:42:28;14.60;83.80
16827;DHT22;8530;49.540;8.576;2024-02-21T10:45:00;14.70;83.30
16827;DHT22;8530;49.540;8.576;2024-02-21T10:47:28;14.80;82.70
16827;DHT22;8530;49.540;8.576;2024-02-21T10:50:02;14.90;82.20
16827;DHT22;8530;49.540;8.576;2024-02-21T10:52:33;14.90;81.40
16827;DHT22;8530;49.540;8.576;2024-02-21T10:55:10;15.00;80.80
16827;DHT22;8530;49.540;8.576;2024-02-21T10:57:41;15.00;79.70
16827;DHT22;8530;49.540;8.576;2024-02-21T11:00:09;14.90;78.90
16827;DHT22;8530;49.540;8.576;2024-02-21T11:02:38;14.80;78.40
16827;DHT22;8530;49.540;8.576;2024-02-21T11:05:06;14.90;78.80
16827;DHT22;8530;49.540;8.576;2024-02-21T11:07:36;14.90;77.70
16827;DHT22;8530;49.540;8.576;2024-02-21T11:10:04;14.90;76.80
16827;DHT22;8530;49.540;8.576;2024-02-21T11:12:34;14.90;76.70
16827;DHT22;8530;49.540;8.576;2024-02-21T11:15:04;15.00;76.60
16827;DHT22;8530;49.540;8.576;2024-02-21T11:17:31;15.10;76.00
16827;DHT22;8530;49.540;8.576;2024-02-21T11:19:58;15.00;75.30
16827;DHT22;8530;49.540;8.576;2024-02-21T11:22:26;15.00;74.90
16827;DHT22;8530;49.540;8.576;2024-02-21T11:25:06;15.00;74.40
16827;DHT22;8530;49.540;8.576;2024-02-21T11:27:38;15.00;74.00
16827;DHT22;8530;49.540;8.576;2024-02-21T11:30:05;15.00;73.90
16827;DHT22;8530;49.540;8.576;2024-02-21T11:32:32;15.00;73.40
16827;DHT22;8530;49.540;8.576;2024-02-21T11:35:00;15.00;72.80
16827;DHT22;8530;49.540;8.576;2024-02-21T11:37:29;14.90;72.20
16827;DHT22;8530;49.540;8.576;2024-02-21T11:39:59;14.90;72.00
16827;DHT22;8530;49.540;8.576;2024-02-21T11:42:26;14.90;71.60
16827;DHT22;8530;49.540;8.576;2024-02-21T11:44:54;14.90;71.60
16827;DHT22;8530;49.540;8.576;2024-02-21T11:47:23;15.00;71.30
16827;DHT22;8530;49.540;8.576;2024-02-21T11:49:50;15.00;71.00
16827;DHT22;8530;49.540;8.576;2024-02-21T11:52:21;15.20;71.00
16827;DHT22;8530;49.540;8.576;2024-02-21T11:54:50;15.20;70.40
16827;DHT22;8530;49.540;8.576;2024-02-21T11:57:18;15.30;70.20
16827;DHT22;8530;49.540;8.576;2024-02-21T11:59:45;15.40;70.10
16827;DHT22;8530;49.540;8.576;2024-02-21T12:02:14;15.40;69.20
16827;DHT22;8530;49.540;8.576;2024-02-21T12:04:42;15.30;68.70
16827;DHT22;8530;49.540;8.576;2024-02-21T12:07:10;15.30;68.50
16827;DHT22;8530;49.540;8.576;2024-02-21T12:09:36;15.30;68.00
16827;DHT22;8530;49.540;8.576;2024-02-21T12:12:04;15.20;67.20
16827;DHT22;8530;49.540;8.576;2024-02-21T12:14:32;15.10;66.90
16827;DHT22;8530;49.540;8.576;2024-02-21T12:16:59;15.10;66.80
16827;DHT22;8530;49.540;8.576;2024-02-21T12:19:31;15.20;66.90
16827;DHT22;8530;49.540;8.576;2024-02-21T12:21:59;15.30;66.70
16827;DHT22;8530;49.540;8.576;2024-02-21T12:24:28;15.30;66.30
16827;DHT22;8530;49.540;8.576;2024-02-21T12:26:56;15.30;65.80
16827;DHT22;8530;49.540;8.576;2024-02-21T12:29:24;15.30;65.50
16827;DHT22;8530;49.540;8.576;2024-02-21T12:31:54;15.20;65.00
16827;DHT22;8530;49.540;8.576;2024-02-21T12:34:23;15.30;64.70
16827;DHT22;8530;49.540;8.576;2024-02-21T12:36:53;15.20;64.40
16827;DHT22;8530;49.540;8.576;2024-02-21T12:39:20;15.20;64.40
16827;DHT22;8530;49.540;8.576;2024-02-21T12:41:47;15.20;63.90
16827;DHT22;8530;49.540;8.576;2024-02-21T12:44:13;15.10;63.80
16827;DHT22;8530;49.540;8.576;2024-02-21T12:46:41;15.10;63.60
16827;DHT22;8530;49.540;8.576;2024-02-21T12:49:08;15.00;63.40
16827;DHT22;8530;49.540;8.576;2024-02-21T12:51:35;15.00;63.30
16827;DHT22;8530;49.540;8.576;2024-02-21T12:54:03;15.00;63.00
16827;DHT22;8530;49.540;8.576;2024-02-21T12:56:30;15.00;62.90
16827;DHT22;8530;49.540;8.576;2024-02-21T12:58:57;15.00;62.90
16827;DHT22;8530;49.540;8.576;2024-02-21T13:01:24;15.00;62.80
16827;DHT22;8530;49.540;8.576;2024-02-21T13:03:51;15.00;62.70
16827;DHT22;8530;49.540;8.576;2024-02-21T13:06:19;15.00;62.50
16827;DHT22;8530;49.540;8.576;2024-02-21T13:08:46;15.00;62.20
16827;DHT22;8530;49.540;8.576;2024-02-21T13:11:14;15.00;62.10
16827;DHT22;8530;49.540;8.576;2024-02-21T13:13:40;15.00;62.10
16827;DHT22;8530;49.540;8.576;2024-02-21T13:16:07;15.00;62.10
16827;DHT22;8530;49.540;8.576;2024-02-21T13:18:35;15.00;62.00
16827;DHT22;8530;49.540;8.576;2024-02-21T13:21:03;15.00;61.70
16827;DHT22;8530;49.540;8.576;2024-02-21T13:23:30;15.00;61.50
16827;DHT22;8530;49.540;8.576;2024-02-21T13:25:57;15.00;61.70
16827;DHT22;8530;49.540;8.576;2024-02-21T13:28:25;14.90;61.00
16827;DHT22;8530;49.540;8.576;2024-02-21T13:30:53;14.90;61.00
16827;DHT22;8530;49.540;8.576;2024-02-21T13:33:19;14.90;60.70
16827;DHT22;8530;49.540;8.576;2024-02-21T13:35:46;14.80;60.50
16827;DHT22;8530;49.540;8.576;2024-02-21T13:38:12;14.70;60.30
16827;DHT22;8530;49.540;8.576;2024-02-21T13:40:40;14.60;60.10
16827;DHT22;8530;49.540;8.576;2024-02-21T13:43:07;14.50;60.10
16827;DHT22;8530;49.540;8.576;2024-02-21T13:45:35;14.50;60.20
16827;DHT22;8530;49.540;8.576;2024-02-21T13:48:03;14.50;60.20
16827;DHT22;8530;49.540;8.576;2024-02-21T13:50:31;14.50;60.10
16827;DHT22;8530;49.540;8.576;2024-02-21T13:53:05;14.60;60.20
16827;DHT22;8530;49.540;8.576;2024-02-21T13:55:32;14.60;60.00
16827;DHT22;8530;49.540;8.576;2024-02-21T13:57:58;14.60;60.00
16827;DHT22;8530;49.540;8.576;2024-02-21T14:00:25;14.60;60.00
16827;DHT22;8530;49.540;8.576;2024-02-21T14:02:54;14.60;60.00
16827;DHT22;8530;49.540;8.576;2024-02-21T14:05:20;14.60;59.90
16827;DHT22;8530;49.540;8.576;2024-02-21T14:07:47;14.50;59.40
16827;DHT22;8530;49.540;8.576;2024-02-21T14:10:15;14.40;59.30
16827;DHT22;8530;49.540;8.576;2024-02-21T14:12:42;14.30;59.80
16827;DHT22;8530;49.540;8.576;2024-02-21T14:15:09;14.30;59.40
16827;DHT22;8530;49.540;8.576;2024-02-21T14:17:36;14.30;59.40
16827;DHT22;8530;49.540;8.576;2024-02-21T14:20:05;14.20;59.30
16827;DHT22;8530;49.540;8.576;2024-02-21T14:22:32;14.10;59.30
16827;DHT22;8530;49.540;8.576;2024-02-21T14:24:59;14.00;59.20
16827;DHT22;8530;49.540;8.576;2024-02-21T14:27:26;14.00;59.20
16827;DHT22;8530;49.540;8.576;2024-02-21T14:29:53;13.90;59.20
16827;DHT22;8530;49.540;8.576;2024-02-21T14:32:20;13.80;59.20
16827;DHT22;8530;49.540;8.576;2024-02-21T14:34:47;13.70;59.20
16827;DHT22;8530;49.540;8.576;2024-02-21T14:37:15;13.70;59.30
16827;DHT22;8530;49.540;8.576;2024-02-21T14:39:42;13.70;59.40
16827;DHT22;8530;49.540;8.576;2024-02-21T14:42:10;13.70;59.40
16827;DHT22;8530;49.540;8.576;2024-02-21T14:44:36;13.60;59.30
16827;DHT22;8530;49.540;8.576;2024-02-21T14:47:04;13.60;59.40
16827;DHT22;8530;49.540;8.576;2024-02-21T14:49:30;13.70;59.60
16827;DHT22;8530;49.540;8.576;2024-02-21T14:51:57;13.80;59.70
16827;DHT22;8530;49.540;8.576;2024-02-21T14:54:25;13.80;59.80
16827;DHT22;8530;49.540;8.576;2024-02-21T14:56:53;13.80;59.70
16827;DHT22;8530;49.540;8.576;2024-02-21T14:59:20;13.80;59.70
16827;DHT22;8530;49.540;8.576;2024-02-21T15:01:47;13.80;59.70
16827;DHT22;8530;49.540;8.576;2024-02-21T15:04:14;13.70;59.60
16827;DHT22;8530;49.540;8.576;2024-02-21T15:06:40;13.60;59.70
16827;DHT22;8530;49.540;8.576;2024-02-21T15:09:08;13.60;59.80
16827;DHT22;8530;49.540;8.576;2024-02-21T15:11:36;13.60;59.80
16827;DHT22;8530;49.540;8.576;2024-02-21T15:14:03;13.60;60.00
16827;DHT22;8530;49.540;8.576;2024-02-21T15:16:30;13.60;60.00
16827;DHT22;8530;49.540;8.576;2024-02-21T15:18:56;13.50;60.00
16827;DHT22;8530;49.540;8.576;2024-02-21T15:21:23;13.50;60.10
16827;DHT22;8530;49.540;8.576;2024-02-21T15:23:50;13.40;60.00
16827;DHT22;8530;49.540;8.576;2024-02-21T15:26:16;13.30;60.00
16827;DHT22;8530;49.540;8.576;2024-02-21T15:28:45;13.20;60.00
16827;DHT22;8530;49.540;8.576;2024-02-21T15:31:19;13.10;60.00
16827;DHT22;8530;49.540;8.576;2024-02-21T15:33:48;13.00;60.00
16827;DHT22;8530;49.540;8.576;2024-02-21T15:36:14;12.90;60.00
16827;DHT22;8530;49.540;8.576;2024-02-21T15:38:42;12.90;60.20
16827;DHT22;8530;49.540;8.576;2024-02-21T15:41:11;12.80;60.80
16827;DHT22;8530;49.540;8.576;2024-02-21T15:43:38;12.80;60.30
16827;DHT22;8530;49.540;8.576;2024-02-21T15:46:06;12.70;60.30
16827;DHT22;8530;49.540;8.576;2024-02-21T15:48:32;12.70;60.50
16827;DHT22;8530;49.540;8.576;2024-02-21T15:51:00;12.60;60.50
16827;DHT22;8530;49.540;8.576;2024-02-21T15:53:28;12.50;60.50
16827;DHT22;8530;49.540;8.576;2024-02-21T15:55:54;12.50;60.50